createdAt,value
2022-11-04T00:00:51.655Z,25.78
2022-11-04T00:01:53.837Z,25.77
2022-11-04T00:02:55.397Z,25.76
2022-11-04T00:03:57.153Z,25.77
2022-11-04T00:04:58.897Z,25.75
2022-11-04T00:06:01.985Z,25.75
2022-11-04T00:07:23.497Z,25.77
2022-11-04T00:08:25.006Z,25.78
2022-11-04T00:09:30.616Z,25.77
2022-11-04T00:10:50.801Z,25.79
2022-11-04T00:12:11.061Z,25.78
2022-11-04T00:13:12.586Z,25.77
2022-11-04T00:14:14.814Z,25.77
2022-11-04T00:15:35.222Z,25.77
2022-11-04T00:16:55.695Z,25.76
2022-11-04T00:17:58.383Z,25.76
2022-11-04T00:19:01.334Z,25.76
2022-11-04T00:20:21.602Z,25.77
2022-11-04T00:21:41.993Z,25.77
2022-11-04T00:23:07.025Z,25.74
2022-11-04T00:24:30.033Z,25.76
2022-11-04T00:25:49.986Z,25.76
2022-11-04T00:27:09.822Z,25.75
2022-11-04T00:28:34.222Z,25.77
2022-11-04T00:29:35.789Z,25.77
2022-11-04T00:30:37.381Z,25.75
2022-11-04T00:31:57.312Z,25.74
2022-11-04T00:33:17.113Z,25.74
2022-11-04T00:34:18.746Z,25.73
2022-11-04T00:35:21.092Z,25.76
2022-11-04T00:36:24.312Z,25.74
2022-11-04T00:37:26.180Z,25.75
2022-11-04T00:38:27.710Z,25.75
2022-11-04T00:39:29.822Z,25.75
2022-11-04T00:40:31.413Z,25.75
2022-11-04T00:41:32.937Z,25.75
2022-11-04T00:42:34.907Z,25.74
2022-11-04T00:43:36.418Z,25.76
2022-11-04T00:44:37.959Z,25.78
2022-11-04T00:45:41.605Z,25.77
2022-11-04T00:46:43.165Z,25.78
2022-11-04T00:47:44.642Z,25.78
2022-11-04T00:48:46.164Z,25.78
2022-11-04T00:49:47.673Z,25.78
2022-11-04T00:50:49.202Z,25.77
2022-11-04T00:51:50.753Z,25.78
2022-11-04T00:52:52.354Z,25.80
2022-11-04T00:53:54.383Z,25.79
2022-11-04T00:54:55.950Z,25.79
2022-11-04T00:55:59.801Z,25.81
2022-11-04T00:57:01.355Z,25.79
2022-11-04T00:58:02.936Z,25.81
2022-11-04T00:59:07.909Z,25.76
2022-11-04T01:00:11.386Z,25.77
2022-11-04T01:01:18.200Z,25.75
2022-11-04T01:02:20.152Z,25.77
2022-11-04T01:03:21.738Z,25.74
2022-11-04T01:04:23.327Z,25.74
2022-11-04T01:05:24.957Z,25.74
2022-11-04T01:06:27.128Z,25.74
2022-11-04T01:07:28.649Z,25.74
2022-11-04T01:08:30.204Z,25.74
2022-11-04T01:09:31.708Z,25.74
2022-11-04T01:10:35.983Z,25.72
2022-11-04T01:11:37.538Z,25.73
2022-11-04T01:12:39.082Z,25.73
2022-11-04T01:13:40.695Z,25.72
2022-11-04T01:14:42.551Z,25.74
2022-11-04T01:15:44.032Z,25.73
2022-11-04T01:16:46.171Z,25.71
2022-11-04T01:17:47.801Z,25.73
2022-11-04T01:18:49.375Z,25.69
2022-11-04T01:19:50.993Z,25.68
2022-11-04T01:20:52.576Z,25.70
2022-11-04T01:21:54.179Z,25.69
2022-11-04T01:22:55.694Z,25.71
2022-11-04T01:23:57.312Z,25.69
2022-11-04T01:24:59.080Z,25.69
2022-11-04T01:26:01.182Z,25.68
2022-11-04T01:27:02.709Z,25.68
2022-11-04T01:28:04.230Z,25.69
2022-11-04T01:29:05.895Z,25.70
2022-11-04T01:30:08.321Z,25.67
2022-11-04T01:31:23.842Z,25.67
2022-11-04T01:32:25.391Z,25.68
2022-11-04T01:33:26.913Z,25.66
2022-11-04T01:34:28.433Z,25.67
2022-11-04T01:35:31.340Z,25.67
2022-11-04T01:36:33.056Z,25.68
2022-11-04T01:37:34.841Z,25.67
2022-11-04T01:38:36.528Z,25.67
2022-11-04T01:39:38.060Z,25.67
2022-11-04T01:40:40.559Z,25.67
2022-11-04T01:41:42.216Z,25.67
2022-11-04T01:42:43.782Z,25.66
2022-11-04T01:44:24.861Z,25.59
2022-11-04T01:45:26.443Z,25.66
2022-11-04T01:46:34.159Z,25.62
2022-11-04T01:47:40.149Z,25.66
2022-11-04T01:48:41.709Z,25.67
2022-11-04T01:49:47.385Z,25.62
2022-11-04T01:50:51.557Z,25.61
2022-11-04T01:52:00.370Z,25.57
2022-11-04T01:53:09.874Z,25.58
2022-11-04T01:54:12.043Z,25.60
2022-11-04T01:55:18.616Z,25.56
2022-11-04T01:56:20.956Z,25.58
2022-11-04T01:57:33.339Z,25.55
2022-11-04T01:58:35.225Z,25.57
2022-11-04T01:59:40.290Z,25.56
2022-11-04T02:00:43.350Z,25.56
2022-11-04T02:01:45.384Z,25.57
2022-11-04T02:02:57.078Z,25.53
2022-11-04T02:04:20.144Z,25.55
2022-11-04T02:05:22.580Z,25.56
2022-11-04T02:06:24.204Z,25.53
2022-11-04T02:07:26.037Z,25.53
2022-11-04T02:08:27.640Z,25.54
2022-11-04T02:09:31.952Z,25.51
2022-11-04T02:10:33.593Z,25.52
2022-11-04T02:11:53.821Z,25.53
2022-11-04T02:12:58.441Z,25.54
2022-11-04T02:14:01.120Z,25.53
2022-11-04T02:15:03.076Z,25.53
2022-11-04T02:16:36.630Z,25.45
2022-11-04T02:17:41.090Z,25.50
2022-11-04T02:18:42.558Z,25.51
2022-11-04T02:19:44.033Z,25.51
2022-11-04T02:21:07.045Z,25.46
2022-11-04T02:22:31.649Z,25.44
2022-11-04T02:23:58.294Z,25.48
2022-11-04T02:25:02.854Z,25.49
2022-11-04T02:26:44.404Z,25.46
2022-11-04T02:28:09.092Z,25.51
2022-11-04T02:29:19.772Z,25.49
2022-11-04T02:30:22.090Z,25.50
2022-11-04T02:31:31.559Z,25.48
2022-11-04T02:32:54.622Z,25.43
2022-11-04T02:34:15.844Z,25.41
2022-11-04T02:35:29.953Z,25.43
2022-11-04T02:36:45.832Z,25.43
2022-11-04T02:37:54.909Z,25.46
2022-11-04T02:39:05.740Z,25.43
2022-11-04T02:40:15.213Z,25.45
2022-11-04T02:41:29.826Z,25.43
2022-11-04T02:42:45.665Z,25.42
2022-11-04T02:44:25.893Z,25.41
2022-11-04T02:45:39.238Z,25.45
2022-11-04T02:46:51.602Z,25.43
2022-11-04T02:48:03.173Z,25.43
2022-11-04T02:49:10.399Z,25.42
2022-11-04T02:50:30.118Z,25.40
2022-11-04T02:51:37.394Z,25.43
2022-11-04T02:52:51.373Z,25.41
2022-11-04T02:54:11.144Z,25.40
2022-11-04T02:55:25.751Z,25.39
2022-11-04T02:56:29.198Z,25.42
2022-11-04T02:57:35.002Z,25.42
2022-11-04T02:58:52.137Z,25.38
2022-11-04T03:00:01.869Z,25.40
2022-11-04T03:01:06.458Z,25.41
2022-11-04T03:02:14.378Z,25.41
2022-11-04T03:03:22.044Z,25.41
2022-11-04T03:04:31.460Z,25.40
2022-11-04T03:05:38.907Z,25.37
2022-11-04T03:06:43.040Z,25.40
2022-11-04T03:07:48.146Z,25.39
2022-11-04T03:08:52.224Z,25.39
2022-11-04T03:09:59.332Z,25.37
2022-11-04T03:11:06.606Z,25.37
2022-11-04T03:12:15.040Z,25.38
2022-11-04T03:13:22.585Z,25.38
2022-11-04T03:14:30.894Z,25.36
2022-11-04T03:15:35.566Z,25.37
2022-11-04T03:16:47.170Z,25.34
2022-11-04T03:18:16.167Z,25.33
2022-11-04T03:19:29.277Z,25.34
2022-11-04T03:20:31.734Z,25.39
2022-11-04T03:21:37.394Z,25.38
2022-11-04T03:22:39.260Z,25.38
2022-11-04T03:23:41.420Z,25.37
2022-11-04T03:24:45.982Z,25.37
2022-11-04T03:25:53.642Z,25.34
2022-11-04T03:26:58.570Z,25.31
2022-11-04T03:28:11.849Z,25.30
2022-11-04T03:29:25.610Z,25.34
2022-11-04T03:30:37.247Z,25.33
2022-11-04T03:32:18.057Z,25.31
2022-11-04T03:33:31.580Z,25.34
2022-11-04T03:34:33.339Z,25.36
2022-11-04T03:35:35.032Z,25.34
2022-11-04T03:36:36.781Z,25.34
2022-11-04T03:37:38.333Z,25.34
2022-11-04T03:38:40.058Z,25.33
2022-11-04T03:39:41.774Z,25.32
2022-11-04T03:40:43.485Z,25.34
2022-11-04T03:41:56.179Z,25.28
2022-11-04T03:43:28.276Z,25.28
2022-11-04T03:44:30.217Z,25.36
2022-11-04T03:45:31.873Z,25.34
2022-11-04T03:46:34.184Z,25.34
2022-11-04T03:47:36.968Z,25.34
2022-11-04T03:48:38.716Z,25.34
2022-11-04T03:49:40.560Z,25.34
2022-11-04T03:50:49.751Z,25.30
2022-11-04T03:51:52.577Z,25.34
2022-11-04T03:52:54.711Z,25.33
2022-11-04T03:53:56.896Z,25.33
2022-11-04T03:54:58.570Z,25.33
2022-11-04T03:56:33.654Z,25.29
2022-11-04T03:57:58.281Z,25.31
2022-11-04T03:59:05.947Z,25.32
2022-11-04T04:00:12.303Z,25.29
2022-11-04T04:01:13.826Z,25.33
2022-11-04T04:02:22.732Z,25.29
2022-11-04T04:03:35.399Z,25.28
2022-11-04T04:04:52.596Z,25.28
2022-11-04T04:06:00.030Z,25.33
2022-11-04T04:07:07.251Z,25.31
2022-11-04T04:08:18.177Z,25.30
2022-11-04T04:09:25.824Z,25.31
2022-11-04T04:10:39.520Z,25.30
2022-11-04T04:12:10.777Z,25.27
2022-11-04T04:13:22.258Z,25.28
2022-11-04T04:14:39.707Z,25.25
2022-11-04T04:16:07.151Z,25.28
2022-11-04T04:17:14.659Z,25.31
2022-11-04T04:18:21.171Z,25.31
2022-11-04T04:19:24.170Z,25.32
2022-11-04T04:20:28.920Z,25.32
2022-11-04T04:21:49.476Z,25.29
2022-11-04T04:23:29.596Z,25.27
2022-11-04T04:24:55.665Z,25.28
2022-11-04T04:26:21.566Z,25.26
2022-11-04T04:27:32.997Z,25.26
2022-11-04T04:28:35.781Z,25.27
2022-11-04T04:29:38.292Z,25.25
2022-11-04T04:30:41.956Z,25.24
2022-11-04T04:31:49.788Z,25.24
2022-11-04T04:33:09.181Z,25.21
2022-11-04T04:34:10.864Z,25.27
2022-11-04T04:35:32.301Z,25.27
2022-11-04T04:37:09.872Z,25.23
2022-11-04T04:38:41.455Z,25.23
2022-11-04T04:40:10.421Z,25.22
2022-11-04T04:41:51.165Z,25.17
2022-11-04T04:43:11.988Z,25.24
2022-11-04T04:44:44.292Z,25.19
2022-11-04T04:45:52.406Z,25.21
2022-11-04T04:46:55.864Z,25.24
2022-11-04T04:47:57.722Z,25.22
2022-11-04T04:49:10.064Z,25.18
2022-11-04T04:50:15.327Z,25.18
2022-11-04T04:51:16.998Z,25.21
2022-11-04T04:52:19.506Z,25.21
2022-11-04T04:53:21.021Z,25.20
2022-11-04T04:54:22.537Z,25.19
2022-11-04T04:55:24.084Z,25.19
2022-11-04T04:56:25.619Z,25.19
2022-11-04T04:57:27.299Z,25.22
2022-11-04T04:58:28.817Z,25.21
2022-11-04T04:59:30.350Z,25.21
2022-11-04T05:00:32.765Z,25.21
2022-11-04T05:01:34.447Z,25.21
2022-11-04T05:02:36.250Z,25.21
2022-11-04T05:03:42.353Z,25.21
2022-11-04T05:04:46.448Z,25.22
2022-11-04T05:05:47.977Z,25.20
2022-11-04T05:06:49.482Z,25.20
2022-11-04T05:07:51.033Z,25.19
2022-11-04T05:08:52.659Z,25.18
2022-11-04T05:09:54.319Z,25.20
2022-11-04T05:10:55.829Z,25.19
2022-11-04T05:11:57.858Z,25.19
2022-11-04T05:13:19.273Z,25.18
2022-11-04T05:14:20.822Z,25.20
2022-11-04T05:15:22.788Z,25.17
2022-11-04T05:16:24.368Z,25.17
2022-11-04T05:17:25.874Z,25.17
2022-11-04T05:18:27.380Z,25.16
2022-11-04T05:19:28.977Z,25.16
2022-11-04T05:20:32.937Z,25.15
2022-11-04T05:21:34.557Z,25.15
2022-11-04T05:22:36.075Z,25.12
2022-11-04T05:23:37.743Z,25.13
2022-11-04T05:24:39.303Z,25.15
2022-11-04T05:25:41.955Z,25.15
2022-11-04T05:26:43.482Z,25.17
2022-11-04T05:27:44.975Z,25.19
2022-11-04T05:28:46.522Z,25.19
2022-11-04T05:29:48.038Z,25.19
2022-11-04T05:30:49.545Z,25.19
2022-11-04T05:31:51.194Z,25.18
2022-11-04T05:32:52.686Z,25.16
2022-11-04T05:33:54.224Z,25.17
2022-11-04T05:34:55.749Z,25.17
2022-11-04T05:36:08.084Z,25.13
2022-11-04T05:37:09.570Z,25.16
2022-11-04T05:38:11.165Z,25.17
2022-11-04T05:39:13.886Z,25.18
2022-11-04T05:40:15.462Z,25.16
2022-11-04T05:41:25.903Z,25.15
2022-11-04T05:42:27.650Z,25.16
2022-11-04T05:43:29.276Z,25.15
2022-11-04T05:44:30.796Z,25.17
2022-11-04T05:45:32.401Z,25.18
2022-11-04T05:46:33.955Z,25.17
2022-11-04T05:47:35.512Z,25.18
2022-11-04T05:48:40.575Z,25.18
2022-11-04T05:49:42.358Z,25.18
2022-11-04T05:50:43.854Z,25.19
2022-11-04T05:51:45.402Z,25.17
2022-11-04T05:52:46.914Z,25.16
2022-11-04T05:53:48.482Z,25.17
2022-11-04T05:54:50.061Z,25.17
2022-11-04T05:55:51.567Z,25.17
2022-11-04T05:56:53.105Z,25.17
2022-11-04T05:57:54.831Z,25.18
2022-11-04T05:58:56.398Z,25.18
2022-11-04T05:59:57.963Z,25.19
2022-11-04T06:01:24.382Z,25.14
2022-11-04T06:02:25.997Z,25.18
2022-11-04T06:03:27.656Z,25.18
2022-11-04T06:04:29.299Z,25.19
2022-11-04T06:05:30.901Z,25.20
2022-11-04T06:06:35.168Z,25.19
2022-11-04T06:07:37.205Z,25.18
2022-11-04T06:08:44.001Z,25.19
2022-11-04T06:09:46.615Z,25.20
2022-11-04T06:10:48.120Z,25.22
2022-11-04T06:11:49.656Z,25.18
2022-11-04T06:12:51.267Z,25.19
2022-11-04T06:13:55.193Z,25.21
2022-11-04T06:14:56.809Z,25.21
2022-11-04T06:15:58.340Z,25.23
2022-11-04T06:17:00.948Z,25.21
2022-11-04T06:18:02.489Z,25.22
2022-11-04T06:19:07.787Z,25.23
2022-11-04T06:20:12.409Z,25.24
2022-11-04T06:21:13.862Z,25.24
2022-11-04T06:22:17.632Z,25.22
2022-11-04T06:23:19.133Z,25.22
2022-11-04T06:24:20.692Z,25.24
2022-11-04T06:25:22.196Z,25.25
2022-11-04T06:26:28.193Z,25.26
2022-11-04T06:27:30.182Z,25.25
2022-11-04T06:28:32.215Z,25.25
2022-11-04T06:29:36.569Z,25.26
2022-11-04T06:30:38.079Z,25.26
2022-11-04T06:31:39.596Z,25.28
2022-11-04T06:32:41.174Z,25.27
2022-11-04T06:33:43.193Z,25.29
2022-11-04T06:34:45.399Z,25.29
2022-11-04T06:35:47.052Z,25.28
2022-11-04T06:36:49.900Z,25.29
2022-11-04T06:37:51.421Z,25.30
2022-11-04T06:38:53.053Z,25.29
2022-11-04T06:39:54.560Z,25.29
2022-11-04T06:40:56.134Z,25.30
2022-11-04T06:41:59.660Z,25.28
2022-11-04T06:43:03.894Z,25.29
2022-11-04T06:44:05.452Z,25.32
2022-11-04T06:45:07.465Z,25.31
2022-11-04T06:46:25.275Z,25.29
2022-11-04T06:47:26.765Z,25.33
2022-11-04T06:48:32.497Z,25.33
2022-11-04T06:49:35.238Z,25.36
2022-11-04T06:50:36.813Z,25.35
2022-11-04T06:51:38.469Z,25.36
2022-11-04T06:52:42.518Z,25.35
2022-11-04T06:53:44.321Z,25.34
2022-11-04T06:54:47.822Z,25.35
2022-11-04T06:55:49.408Z,25.34
2022-11-04T06:56:50.983Z,25.35
2022-11-04T06:57:52.496Z,25.35
2022-11-04T06:58:54.987Z,25.36
2022-11-04T06:59:56.717Z,25.37
2022-11-04T07:00:58.384Z,25.38
2022-11-04T07:02:00.108Z,25.38
2022-11-04T07:03:01.986Z,25.38
2022-11-04T07:04:07.516Z,25.39
2022-11-04T07:05:09.307Z,25.40
2022-11-04T07:06:11.739Z,25.40
2022-11-04T07:07:13.355Z,25.41
2022-11-04T07:08:15.067Z,25.40
2022-11-04T07:09:16.754Z,25.40
2022-11-04T07:10:18.389Z,25.40
2022-11-04T07:11:22.193Z,25.39
2022-11-04T07:12:24.731Z,25.41
2022-11-04T07:13:26.618Z,25.40
2022-11-04T07:14:28.209Z,25.41
2022-11-04T07:15:29.783Z,25.42
2022-11-04T07:16:31.289Z,25.42
2022-11-04T07:17:32.847Z,25.43
2022-11-04T07:18:34.844Z,25.43
2022-11-04T07:19:36.517Z,25.42
2022-11-04T07:20:38.067Z,25.43
2022-11-04T07:21:39.591Z,25.42
2022-11-04T07:22:41.125Z,25.44
2022-11-04T07:23:43.265Z,25.44
2022-11-04T07:24:44.783Z,25.45
2022-11-04T07:25:46.325Z,25.45
2022-11-04T07:26:47.843Z,25.46
2022-11-04T07:27:49.383Z,25.46
2022-11-04T07:28:51.184Z,25.46
2022-11-04T07:29:52.700Z,25.48
2022-11-04T07:30:58.521Z,25.43
2022-11-04T07:32:00.050Z,25.44
2022-11-04T07:33:01.630Z,25.45
2022-11-04T07:34:03.700Z,25.46
2022-11-04T07:35:06.032Z,25.48
2022-11-04T07:36:11.037Z,25.46
2022-11-04T07:37:12.555Z,25.48
2022-11-04T07:38:14.076Z,25.49
2022-11-04T07:39:16.125Z,25.49
2022-11-04T07:40:17.932Z,25.50
2022-11-04T07:41:19.715Z,25.51
2022-11-04T07:42:21.281Z,25.50
2022-11-04T07:43:23.016Z,25.50
2022-11-04T07:44:24.566Z,25.49
2022-11-04T07:45:26.210Z,25.49
2022-11-04T07:46:27.796Z,25.49
2022-11-04T07:47:30.625Z,25.50
2022-11-04T07:48:32.393Z,25.49
2022-11-04T07:49:34.047Z,25.51
2022-11-04T07:50:39.439Z,25.49
2022-11-04T07:51:41.004Z,25.51
2022-11-04T07:52:42.555Z,25.50
2022-11-04T07:53:44.599Z,25.52
2022-11-04T07:54:46.146Z,25.51
2022-11-04T07:55:50.874Z,25.50
2022-11-04T07:56:52.400Z,25.52
2022-11-04T07:57:54.969Z,25.52
2022-11-04T07:58:56.539Z,25.52
2022-11-04T07:59:58.127Z,25.53
2022-11-04T08:01:01.237Z,25.53
2022-11-04T08:02:03.285Z,25.53
2022-11-04T08:03:05.011Z,25.54
2022-11-04T08:04:07.873Z,25.52
2022-11-04T08:05:09.964Z,25.53
2022-11-04T08:06:14.646Z,25.52
2022-11-04T08:07:16.255Z,25.53
2022-11-04T08:08:17.750Z,25.55
2022-11-04T08:09:19.363Z,25.53
2022-11-04T08:10:20.999Z,25.53
2022-11-04T08:11:28.473Z,25.52
2022-11-04T08:12:31.585Z,25.56
2022-11-04T08:13:35.991Z,25.53
2022-11-04T08:14:37.497Z,25.53
2022-11-04T08:15:39.016Z,25.54
2022-11-04T08:16:40.573Z,25.52
2022-11-04T08:17:42.149Z,25.53
2022-11-04T08:18:44.867Z,25.53
2022-11-04T08:19:46.356Z,25.53
2022-11-04T08:20:51.966Z,25.51
2022-11-04T08:21:53.561Z,25.53
2022-11-04T08:22:55.085Z,25.53
2022-11-04T08:23:56.821Z,25.52
2022-11-04T08:24:58.423Z,25.51
2022-11-04T08:26:00.278Z,25.52
2022-11-04T08:27:02.293Z,25.50
2022-11-04T08:28:03.905Z,25.52
2022-11-04T08:29:09.035Z,25.50
2022-11-04T08:30:11.197Z,25.52
2022-11-04T08:31:21.893Z,25.49
2022-11-04T08:32:23.796Z,25.51
2022-11-04T08:33:26.832Z,25.53
2022-11-04T08:34:28.676Z,25.52
2022-11-04T08:35:31.300Z,25.52
2022-11-04T08:36:36.674Z,25.53
2022-11-04T08:37:38.603Z,25.52
2022-11-04T08:38:40.266Z,25.54
2022-11-04T08:39:43.048Z,25.53
2022-11-04T08:40:44.583Z,25.54
2022-11-04T08:41:46.212Z,25.54
2022-11-04T08:42:47.759Z,25.53
2022-11-04T08:43:50.149Z,25.54
2022-11-04T08:44:52.619Z,25.54
2022-11-04T08:45:54.798Z,25.56
2022-11-04T08:46:56.327Z,25.53
2022-11-04T08:48:01.412Z,25.54
2022-11-04T08:49:09.684Z,25.55
2022-11-04T08:50:11.687Z,25.54
2022-11-04T08:51:19.765Z,25.53
2022-11-04T08:52:21.276Z,25.53
2022-11-04T08:53:22.830Z,25.53
2022-11-04T08:54:25.015Z,25.53
2022-11-04T08:55:29.044Z,25.54
2022-11-04T08:56:32.954Z,25.55
2022-11-04T08:57:34.472Z,25.54
2022-11-04T08:58:36.033Z,25.55
2022-11-04T08:59:37.587Z,25.55
2022-11-04T09:00:39.464Z,25.55
2022-11-04T09:01:42.563Z,25.54
2022-11-04T09:02:44.166Z,25.56
2022-11-04T09:03:45.737Z,25.57
2022-11-04T09:04:47.345Z,25.56
2022-11-04T09:05:49.221Z,25.55
2022-11-04T09:06:52.166Z,25.56
2022-11-04T09:07:53.744Z,25.54
2022-11-04T09:08:57.320Z,25.54
2022-11-04T09:09:58.851Z,25.56
2022-11-04T09:11:01.481Z,25.55
2022-11-04T09:12:03.025Z,25.56
2022-11-04T09:13:04.573Z,25.57
2022-11-04T09:14:06.499Z,25.57
2022-11-04T09:15:08.575Z,25.56
2022-11-04T09:16:13.101Z,25.56
2022-11-04T09:17:15.300Z,25.56
2022-11-04T09:18:17.334Z,25.56
2022-11-04T09:19:18.886Z,25.58
2022-11-04T09:20:20.380Z,25.57
2022-11-04T09:21:21.904Z,25.56
2022-11-04T09:22:24.321Z,25.57
2022-11-04T09:23:25.885Z,25.57
2022-11-04T09:24:27.542Z,25.57
2022-11-04T09:25:29.105Z,25.58
2022-11-04T09:26:31.312Z,25.56
2022-11-04T09:27:32.912Z,25.57
2022-11-04T09:28:34.425Z,25.56
2022-11-04T09:29:36.469Z,25.57
2022-11-04T09:30:38.068Z,25.58
2022-11-04T09:31:39.624Z,25.58
2022-11-04T09:32:41.455Z,25.57
2022-11-04T09:33:43.487Z,25.59
2022-11-04T09:34:45.045Z,25.59
2022-11-04T09:35:57.761Z,25.56
2022-11-04T09:36:59.365Z,25.59
2022-11-04T09:38:01.561Z,25.59
2022-11-04T09:39:03.745Z,25.59
2022-11-04T09:40:05.857Z,25.60
2022-11-04T09:41:33.655Z,25.55
2022-11-04T09:42:48.005Z,25.58
2022-11-04T09:44:13.453Z,25.59
2022-11-04T09:45:23.138Z,25.62
2022-11-04T09:46:26.074Z,25.65
2022-11-04T09:47:30.437Z,25.65
2022-11-04T09:48:38.709Z,25.64
2022-11-04T09:49:44.821Z,25.65
2022-11-04T09:50:55.949Z,25.62
2022-11-04T09:51:59.402Z,25.65
2022-11-04T09:53:12.968Z,25.64
2022-11-04T09:54:24.283Z,25.64
2022-11-04T09:55:55.660Z,25.65
2022-11-04T09:57:01.641Z,25.66
2022-11-04T09:58:04.657Z,25.67
2022-11-04T09:59:06.725Z,25.68
2022-11-04T10:00:16.186Z,25.66
2022-11-04T10:01:38.885Z,25.66
2022-11-04T10:02:56.569Z,25.65
2022-11-04T10:04:10.334Z,25.69
2022-11-04T10:05:31.168Z,25.65
2022-11-04T10:06:55.372Z,25.67
2022-11-04T10:08:04.874Z,25.71
2022-11-04T10:09:24.600Z,25.66
2022-11-04T10:10:29.277Z,25.65
2022-11-04T10:12:07.987Z,25.62
2022-11-04T10:13:12.598Z,25.66
2022-11-04T10:14:20.266Z,25.65
2022-11-04T10:15:47.205Z,25.63
2022-11-04T10:17:14.950Z,25.65
2022-11-04T10:18:59.438Z,25.67
2022-11-04T10:20:15.789Z,25.75
2022-11-04T10:21:35.790Z,25.69
2022-11-04T10:22:51.757Z,25.69
2022-11-04T10:24:02.469Z,25.70
2022-11-04T10:25:25.798Z,25.66
2022-11-04T10:26:37.153Z,25.69
2022-11-04T10:27:44.549Z,25.70
2022-11-04T10:28:56.673Z,25.68
2022-11-04T10:30:03.533Z,25.72
2022-11-04T10:31:05.677Z,25.74
2022-11-04T10:32:32.727Z,25.72
2022-11-04T10:33:47.216Z,25.73
2022-11-04T10:34:56.267Z,25.74
2022-11-04T10:36:09.161Z,25.73
2022-11-04T10:37:15.304Z,25.75
2022-11-04T10:38:29.620Z,25.74
2022-11-04T10:39:36.092Z,25.76
2022-11-04T10:40:40.101Z,25.76
2022-11-04T10:41:41.680Z,25.77
2022-11-04T10:42:43.263Z,25.77
2022-11-04T10:43:45.131Z,25.76
2022-11-04T10:44:49.676Z,25.77
2022-11-04T10:46:12.386Z,25.74
2022-11-04T10:47:32.214Z,25.75
2022-11-04T10:48:42.285Z,25.77
2022-11-04T10:50:26.632Z,25.74
2022-11-04T10:51:22.987Z,25.80
2022-11-04T10:52:24.718Z,25.81
2022-11-04T10:53:32.114Z,25.77
2022-11-04T10:54:42.180Z,25.77
2022-11-04T10:56:10.781Z,25.76
2022-11-04T10:57:16.752Z,25.79
2022-11-04T10:58:23.713Z,25.78
2022-11-04T10:59:28.944Z,25.78
2022-11-04T11:00:39.341Z,25.76
2022-11-04T11:01:49.127Z,25.75
2022-11-04T11:02:50.742Z,25.79
2022-11-04T11:03:52.873Z,25.76
2022-11-04T11:05:21.856Z,25.73
2022-11-04T11:06:34.740Z,25.76
2022-11-04T11:07:37.348Z,25.78
2022-11-04T11:08:39.175Z,25.80
2022-11-04T11:09:40.650Z,25.81
2022-11-04T11:10:51.494Z,25.78
2022-11-04T11:11:53.274Z,25.81
2022-11-04T11:13:07.425Z,25.79
2022-11-04T11:14:27.588Z,25.80
2022-11-04T11:15:33.256Z,25.82
2022-11-04T11:16:34.773Z,25.82
2022-11-04T11:17:38.482Z,25.82
2022-11-04T11:18:41.665Z,25.82
2022-11-04T11:20:00.235Z,25.80
2022-11-04T11:21:11.652Z,25.81
2022-11-04T11:22:41.817Z,25.78
2022-11-04T11:23:47.484Z,25.83
2022-11-04T11:24:49.080Z,25.81
2022-11-04T11:25:51.251Z,25.81
2022-11-04T11:26:59.071Z,25.77
2022-11-04T11:28:12.933Z,25.77
2022-11-04T11:29:21.827Z,25.79
2022-11-04T11:30:37.109Z,25.78
2022-11-04T11:31:40.510Z,25.81
2022-11-04T11:32:44.282Z,25.80
2022-11-04T11:33:59.339Z,25.77
2022-11-04T11:35:04.351Z,25.81
2022-11-04T11:36:41.933Z,25.77
2022-11-04T11:37:47.506Z,25.82
2022-11-04T11:38:58.153Z,25.81
2022-11-04T11:39:59.904Z,25.84
2022-11-04T11:41:24.797Z,25.79
2022-11-04T11:42:27.060Z,25.83
2022-11-04T11:43:31.426Z,25.82
2022-11-04T11:44:47.962Z,25.77
2022-11-04T11:45:50.688Z,25.81
2022-11-04T11:46:55.741Z,25.82
2022-11-04T11:47:57.441Z,25.82
2022-11-04T11:49:04.238Z,25.81
2022-11-04T11:50:18.227Z,25.80
2022-11-04T11:51:30.690Z,25.81
2022-11-04T11:52:36.981Z,25.82
2022-11-04T11:53:45.549Z,25.83
2022-11-04T11:54:50.557Z,25.80
2022-11-04T11:56:06.839Z,25.77
2022-11-04T11:57:35.855Z,25.78
2022-11-04T12:01:37.816Z,25.80
2022-11-04T12:02:48.826Z,25.81
2022-11-04T12:10:50.265Z,25.81
2022-11-04T12:12:19.552Z,25.77
2022-11-04T12:13:30.587Z,25.74
2022-11-04T12:14:32.204Z,25.76
2022-11-04T12:15:39.748Z,25.73
2022-11-04T12:16:51.890Z,25.73
2022-11-04T12:18:08.397Z,25.72
2022-11-04T12:19:16.090Z,25.72
2022-11-04T12:20:36.560Z,25.70
2022-11-04T12:21:46.203Z,25.71
2022-11-04T12:23:09.267Z,25.74
2022-11-04T12:24:34.165Z,25.72
2022-11-04T12:25:49.440Z,25.74
2022-11-04T12:27:03.733Z,25.78
2022-11-04T12:28:32.551Z,25.72
2022-11-04T12:29:48.483Z,25.74
2022-11-04T12:31:19.813Z,25.75
2022-11-04T12:32:40.039Z,25.80
2022-11-04T12:34:15.431Z,25.75
2022-11-04T12:35:16.901Z,25.78
2022-11-04T12:36:47.997Z,25.73
2022-11-04T12:38:31.525Z,25.71
2022-11-04T12:40:21.897Z,25.72
2022-11-04T12:43:37.553Z,25.83
2022-11-04T12:45:07.388Z,25.78
2022-11-04T12:46:21.029Z,25.77
2022-11-04T12:47:40.220Z,25.80
2022-11-04T12:48:57.020Z,25.78
2022-11-04T12:50:18.004Z,25.81
2022-11-04T12:51:44.257Z,25.78
2022-11-04T12:52:54.916Z,25.77
2022-11-04T12:54:24.029Z,25.74
2022-11-04T12:55:37.235Z,25.75
2022-11-04T12:56:42.633Z,25.80
2022-11-04T12:58:14.761Z,25.75
2022-11-04T12:59:36.993Z,25.81
2022-11-04T13:00:41.227Z,25.85
2022-11-04T13:01:50.978Z,25.83
2022-11-04T13:03:02.344Z,25.84
2022-11-04T13:04:07.517Z,25.84
2022-11-04T13:05:21.276Z,25.81
2022-11-04T13:06:29.126Z,25.84
2022-11-04T13:07:40.102Z,25.84
2022-11-04T13:09:13.973Z,25.84
2022-11-04T13:10:27.323Z,25.83
2022-11-04T13:11:47.933Z,25.82
2022-11-04T13:12:54.165Z,25.84
2022-11-04T13:14:12.721Z,25.79
2022-11-04T13:15:19.885Z,25.84
2022-11-04T13:16:21.919Z,25.84
2022-11-04T13:17:31.328Z,25.85
2022-11-04T13:18:37.060Z,25.83
2022-11-04T13:19:52.909Z,25.84
2022-11-04T13:21:04.232Z,25.81
2022-11-04T13:22:14.334Z,25.81
2022-11-04T13:23:25.741Z,25.83
2022-11-04T13:24:31.750Z,25.85
2022-11-04T13:25:41.755Z,25.84
2022-11-04T13:26:43.819Z,25.86
2022-11-04T13:27:48.240Z,25.86
2022-11-04T13:29:04.336Z,25.83
2022-11-04T13:30:53.246Z,25.83
2022-11-04T13:32:21.824Z,25.89
2022-11-04T13:33:54.964Z,25.88
2022-11-04T13:35:27.295Z,25.91
2022-11-04T13:36:28.754Z,25.95
2022-11-04T13:37:39.677Z,25.93
2022-11-04T13:38:50.415Z,25.94
2022-11-04T13:39:58.292Z,25.95
2022-11-04T13:41:28.010Z,25.93
2022-11-04T13:42:41.377Z,25.93
2022-11-04T13:43:52.126Z,25.95
2022-11-04T13:44:59.096Z,25.98
2022-11-04T13:46:01.054Z,25.98
2022-11-04T13:47:06.248Z,25.99
2022-11-04T13:48:11.429Z,25.97
2022-11-04T13:49:12.892Z,25.99
2022-11-04T13:50:40.146Z,25.94
2022-11-04T13:51:43.068Z,25.99
2022-11-04T13:52:52.656Z,25.97
2022-11-04T13:53:58.245Z,25.97
2022-11-04T13:55:17.187Z,25.97
2022-11-04T13:56:34.498Z,25.99
2022-11-04T13:57:55.859Z,25.96
2022-11-04T13:59:06.652Z,25.97
2022-11-04T14:00:11.256Z,26.01
2022-11-04T14:01:35.020Z,25.98
2022-11-04T14:02:54.086Z,26.00
2022-11-04T14:03:55.650Z,26.02
2022-11-04T14:04:57.200Z,26.03
2022-11-04T14:06:03.885Z,26.04
2022-11-04T14:07:10.334Z,26.04
2022-11-04T14:08:14.326Z,26.05
2022-11-04T14:09:50.918Z,26.00
2022-11-04T14:10:52.649Z,26.03
2022-11-04T14:12:17.099Z,25.97
2022-11-04T14:13:27.697Z,25.99
2022-11-04T14:14:29.326Z,26.02
2022-11-04T14:16:32.181Z,25.98
2022-11-04T14:17:33.729Z,26.07
2022-11-04T14:18:38.235Z,26.05
2022-11-04T14:19:56.040Z,26.03
2022-11-04T14:21:15.656Z,26.02
2022-11-04T14:22:18.911Z,26.03
2022-11-04T14:23:24.592Z,26.02
2022-11-04T14:24:28.776Z,26.04
2022-11-04T14:25:44.343Z,26.00
2022-11-04T14:26:48.414Z,26.01
2022-11-04T14:28:11.533Z,26.01
2022-11-04T14:29:23.380Z,26.01
2022-11-04T14:30:35.056Z,26.02
2022-11-04T14:31:42.759Z,26.06
2022-11-04T14:32:44.600Z,26.06
2022-11-04T14:33:51.424Z,26.04
2022-11-04T14:35:06.116Z,26.01
2022-11-04T14:36:23.010Z,26.00
2022-11-04T14:37:29.074Z,26.04
2022-11-04T14:38:33.940Z,26.05
2022-11-04T14:39:43.169Z,26.03
2022-11-04T14:41:12.077Z,26.03
2022-11-04T14:42:14.880Z,26.06
2022-11-04T14:43:31.037Z,26.04
2022-11-04T14:44:39.824Z,26.07
2022-11-04T14:45:43.132Z,26.09
2022-11-04T14:46:47.939Z,26.07